BBC Livorno — V2QJ2 — position and weather

sailwx.info

Track history (hours):
 
Tides and Currents Weather Stations Pressure Air Temp Water Temp Dewpoint Dewpoint Depression Visibility Wind Speed Wind Dir Waves Ship Positions

BBC Livorno

Last reported at 2018-Jun-22 04:59 UTC. Time now 2018-Jun-22 05:44 UTC.
Position N 48°04' W 006°10'.

Length 130 m; draft 7.4 m.

Type: Cargo ship. MMSI: 305775000.

Date/timePositionNaut miles runAvg speedWind from/ knotsBaromVisibWave heightAir tempDewpointWater temp
2018-Jun-22 04:59N 48°04' W 006°10'9 8.7
2018-Jun-22 03:58N 47°57' W 006°16'8 8.3
2018-Jun-22 02:58N 47°49' W 006°22'  
2018-Jun-19 11:00N 39°31' W 009°49'5 8.9
2018-Jun-19 10:30N 39°26' W 009°49'5 9.0
2018-Jun-19 09:58N 39°22' W 009°50'4 9.1
2018-Jun-19 09:30N 39°17' W 009°50'5 9.2
2018-Jun-19 09:00N 39°13' W 009°50'4 8.7
2018-Jun-19 08:30N 39°08' W 009°50'4 8.8
2018-Jun-19 08:00N 39°04' W 009°50'4 8.8
2018-Jun-19 07:31N 38°60' W 009°50'5 9.1
2018-Jun-19 07:00N 38°55' W 009°50'5 9.1
2018-Jun-19 06:30N 38°51' W 009°50'4 8.9
2018-Jun-19 06:00N 38°46' W 009°50'5 9.2
2018-Jun-19 05:30N 38°41' W 009°50'4 9.0
2018-Jun-19 05:00N 38°37' W 009°49'4 8.6
2018-Jun-19 04:30N 38°33' W 009°47'4 8.4
2018-Jun-19 04:01N 38°29' W 009°46'4 8.8
2018-Jun-19 03:30N 38°24' W 009°45'4 8.6
2018-Jun-19 03:00N 38°20' W 009°44'4 8.5
2018-Jun-19 02:31N 38°16' W 009°42'4 8.5
2018-Jun-19 02:01N 38°12' W 009°41'4 8.7
2018-Jun-19 01:31N 38°08' W 009°40'4 8.8
2018-Jun-19 01:00N 38°03' W 009°39'4 8.8
2018-Jun-19 00:31N 37°59' W 009°37'4 8.8
2018-Jun-19 00:00N 37°55' W 009°36'4 8.7
2018-Jun-18 23:31N 37°51' W 009°35'5 9.6
2018-Jun-18 23:00N 37°46' W 009°34'5 9.4
2018-Jun-18 22:30N 37°41' W 009°33'5 9.3
2018-Jun-18 22:01N 37°37' W 009°31'5 9.3
2018-Jun-18 21:30N 37°32' W 009°29'5 9.6
2018-Jun-18 21:01N 37°28' W 009°28'5 9.9
2018-Jun-18 20:31N 37°23' W 009°27'5 9.5
2018-Jun-18 20:00N 37°18' W 009°26'5 9.3
2018-Jun-18 19:31N 37°14' W 009°24'5 9.6
2018-Jun-18 19:00N 37°09' W 009°23'5 9.8
2018-Jun-18 18:30N 37°04' W 009°22'6 9.6
2018-Jun-18 17:55N 36°59' W 009°20'5 9.6
2018-Jun-18 17:21N 36°54' W 009°18'5 9.5
2018-Jun-18 16:50N 36°50' W 009°14'20 8.9
2018-Jun-18 14:33N 36°40' W 008°52'14 9.5
2018-Jun-18 13:02N 36°35' W 008°35'0 9.8
2018-Jun-18 13:00N 36°35' W 008°35'11810.7
2018-Jun-18 01:59N 35°59' W 006°16'2110.8
2018-Jun-18 00:01N 35°58' W 005°49'111.0
2018-Jun-17 23:57N 35°58' W 005°49'510.5
2018-Jun-17 23:28N 35°58' W 005°42'4 8.7
2018-Jun-17 23:00N 35°58' W 005°37'4 8.2
2018-Jun-17 22:28N 35°59' W 005°32'3 7.1
2018-Jun-17 22:00N 36°00' W 005°28'4 7.1
2018-Jun-17 21:30N 36°01' W 005°24'4 8.3
2018-Jun-17 21:00N 36°03' W 005°19'4 8.5
2018-Jun-17 20:30N 36°04' W 005°14'5 8.5
2018-Jun-17 19:56N 36°05' W 005°08'159 9.4
2018-Jun-17 03:00N 36°29' W 001°53'710.2
2018-Jun-17 02:20N 36°30' W 001°45'510.0
2018-Jun-17 01:47N 36°31' W 001°38'3 9.7
2018-Jun-17 01:29N 36°32' W 001°35'5 9.6
2018-Jun-17 01:00N 36°33' W 001°29'8 9.7
2018-Jun-17 00:11N 36°34' W 001°19'2 9.9
2018-Jun-17 00:00N 36°34' W 001°17'11 9.8
2018-Jun-16 22:54N 36°36' W 001°04'410.3
2018-Jun-16 22:28N 36°37' W 000°58'910.3
2018-Jun-16 21:36N 36°39' W 000°47'110.1
2018-Jun-16 21:30N 36°39' W 000°46'510.0
2018-Jun-16 21:00N 36°40' W 000°40'510.1
2018-Jun-16 20:30N 36°41' W 000°34'5 9.9
2018-Jun-16 20:00N 36°42' W 000°28'510.2
2018-Jun-16 19:29N 36°43' W 000°21'510.4
2018-Jun-16 19:00N 36°44' W 000°15'510.3
2018-Jun-16 18:30N 36°45' W 000°09'510.4
2018-Jun-16 18:00N 36°46' W 000°03'510.6
2018-Jun-16 17:30N 36°47' E 000°04'610.8
2018-Jun-16 17:00N 36°48' E 000°11'510.9
2018-Jun-16 16:30N 36°49' E 000°17'510.6
2018-Jun-16 16:00N 36°50' E 000°24'510.7
2018-Jun-16 15:30N 36°51' E 000°30'510.7
2018-Jun-16 15:00N 36°52' E 000°37'510.4
2018-Jun-16 14:30N 36°52' E 000°43'510.7
2018-Jun-16 14:00N 36°54' E 000°50'510.8
2018-Jun-16 13:30N 36°55' E 000°56'610.7
2018-Jun-16 12:58N 36°56' E 001°03'510.6
2018-Jun-16 12:30N 36°57' E 001°09'610.5
2018-Jun-16 11:59N 36°58' E 001°16'510.6
2018-Jun-16 11:30N 36°59' E 001°22'510.5
2018-Jun-16 11:00N 36°60' E 001°29'510.4
2018-Jun-16 10:30N 37°01' E 001°35'510.4
2018-Jun-16 10:00N 37°02' E 001°42'510.4
2018-Jun-16 09:30N 37°02' E 001°48'510.5
2018-Jun-16 09:00N 37°03' E 001°54'510.3
2018-Jun-16 08:30N 37°04' E 002°01'510.1
2018-Jun-16 08:00N 37°05' E 002°07'510.1
2018-Jun-16 07:30N 37°06' E 002°13'5 9.8
2018-Jun-16 07:00N 37°07' E 002°19'5 9.4
2018-Jun-16 06:30N 37°08' E 002°25'5 9.3
2018-Jun-16 06:00N 37°09' E 002°31'5 9.2
2018-Jun-16 05:31N 37°10' E 002°36'5 9.2
2018-Jun-16 05:00N 37°11' E 002°42'5 9.6
2018-Jun-16 04:30N 37°12' E 002°48'510.0
2018-Jun-16 04:00N 37°12' E 002°54'510.2
2018-Jun-16 03:30N 37°13' E 003°01'510.4
2018-Jun-16 03:00N 37°14' E 003°07'510.8
2018-Jun-16 02:30N 37°14' E 003°14'510.6
2018-Jun-16 02:00N 37°15' E 003°20'610.9
2018-Jun-16 01:29N 37°15' E 003°27'511.1
2018-Jun-16 01:00N 37°16' E 003°34'611.0
2018-Jun-16 00:30N 37°17' E 003°41'510.7
2018-Jun-15 23:59N 37°17' E 003°48'510.4
2018-Jun-15 23:30N 37°17' E 003°54'510.1
2018-Jun-15 23:00N 37°18' E 004°00'6 9.9
2018-Jun-15 22:25N 37°18' E 004°08'410.0
2018-Jun-15 22:00N 37°19' E 004°13'5 9.9
2018-Jun-15 21:30N 37°19' E 004°19'  
Track history (hours):
 
Tides and Currents Weather Stations Pressure Air Temp Water Temp Dewpoint Dewpoint Depression Visibility Wind Speed Wind Dir Waves Ship Positions

BBC Livorno

Last reported at 2018-Jun-22 04:59 UTC. Time now 2018-Jun-22 05:44 UTC.
Position N 48°04' W 006°10'.

Length 130 m; draft 7.4 m.

Type: Cargo ship. MMSI: 305775000.

Date/timePositionNaut miles runAvg speedWind from/ knotsBaromVisibWave heightAir tempDewpointWater temp
2018-Jun-22 04:59N 48°04' W 006°10'9 8.7
2018-Jun-22 03:58N 47°57' W 006°16'8 8.3
2018-Jun-22 02:58N 47°49' W 006°22'  
2018-Jun-19 11:00N 39°31' W 009°49'5 8.9
2018-Jun-19 10:30N 39°26' W 009°49'5 9.0
2018-Jun-19 09:58N 39°22' W 009°50'4 9.1
2018-Jun-19 09:30N 39°17' W 009°50'5 9.2
2018-Jun-19 09:00N 39°13' W 009°50'4 8.7
2018-Jun-19 08:30N 39°08' W 009°50'4 8.8
2018-Jun-19 08:00N 39°04' W 009°50'4 8.8
2018-Jun-19 07:31N 38°60' W 009°50'5 9.1
2018-Jun-19 07:00N 38°55' W 009°50'5 9.1
2018-Jun-19 06:30N 38°51' W 009°50'4 8.9
2018-Jun-19 06:00N 38°46' W 009°50'5 9.2
2018-Jun-19 05:30N 38°41' W 009°50'4 9.0
2018-Jun-19 05:00N 38°37' W 009°49'4 8.6
2018-Jun-19 04:30N 38°33' W 009°47'4 8.4
2018-Jun-19 04:01N 38°29' W 009°46'4 8.8
2018-Jun-19 03:30N 38°24' W 009°45'4 8.6
2018-Jun-19 03:00N 38°20' W 009°44'4 8.5
2018-Jun-19 02:31N 38°16' W 009°42'4 8.5
2018-Jun-19 02:01N 38°12' W 009°41'4 8.7
2018-Jun-19 01:31N 38°08' W 009°40'4 8.8
2018-Jun-19 01:00N 38°03' W 009°39'4 8.8
2018-Jun-19 00:31N 37°59' W 009°37'4 8.8
2018-Jun-19 00:00N 37°55' W 009°36'4 8.7
2018-Jun-18 23:31N 37°51' W 009°35'5 9.6
2018-Jun-18 23:00N 37°46' W 009°34'5 9.4
2018-Jun-18 22:30N 37°41' W 009°33'5 9.3
2018-Jun-18 22:01N 37°37' W 009°31'5 9.3
2018-Jun-18 21:30N 37°32' W 009°29'5 9.6
2018-Jun-18 21:01N 37°28' W 009°28'5 9.9
2018-Jun-18 20:31N 37°23' W 009°27'5 9.5
2018-Jun-18 20:00N 37°18' W 009°26'5 9.3
2018-Jun-18 19:31N 37°14' W 009°24'5 9.6
2018-Jun-18 19:00N 37°09' W 009°23'5 9.8
2018-Jun-18 18:30N 37°04' W 009°22'6 9.6
2018-Jun-18 17:55N 36°59' W 009°20'5 9.6
2018-Jun-18 17:21N 36°54' W 009°18'5 9.5
2018-Jun-18 16:50N 36°50' W 009°14'20 8.9
2018-Jun-18 14:33N 36°40' W 008°52'14 9.5
2018-Jun-18 13:02N 36°35' W 008°35'0 9.8
2018-Jun-18 13:00N 36°35' W 008°35'11810.7
2018-Jun-18 01:59N 35°59' W 006°16'2110.8
2018-Jun-18 00:01N 35°58' W 005°49'111.0
2018-Jun-17 23:57N 35°58' W 005°49'510.5
2018-Jun-17 23:28N 35°58' W 005°42'4 8.7
2018-Jun-17 23:00N 35°58' W 005°37'4 8.2
2018-Jun-17 22:28N 35°59' W 005°32'3 7.1
2018-Jun-17 22:00N 36°00' W 005°28'4 7.1
2018-Jun-17 21:30N 36°01' W 005°24'4 8.3
2018-Jun-17 21:00N 36°03' W 005°19'4 8.5
2018-Jun-17 20:30N 36°04' W 005°14'5 8.5
2018-Jun-17 19:56N 36°05' W 005°08'159 9.4
2018-Jun-17 03:00N 36°29' W 001°53'710.2
2018-Jun-17 02:20N 36°30' W 001°45'510.0
2018-Jun-17 01:47N 36°31' W 001°38'3 9.7
2018-Jun-17 01:29N 36°32' W 001°35'5 9.6
2018-Jun-17 01:00N 36°33' W 001°29'8 9.7
2018-Jun-17 00:11N 36°34' W 001°19'2 9.9
2018-Jun-17 00:00N 36°34' W 001°17'11 9.8
2018-Jun-16 22:54N 36°36' W 001°04'410.3
2018-Jun-16 22:28N 36°37' W 000°58'910.3
2018-Jun-16 21:36N 36°39' W 000°47'110.1
2018-Jun-16 21:30N 36°39' W 000°46'510.0
2018-Jun-16 21:00N 36°40' W 000°40'510.1
2018-Jun-16 20:30N 36°41' W 000°34'5 9.9
2018-Jun-16 20:00N 36°42' W 000°28'510.2
2018-Jun-16 19:29N 36°43' W 000°21'510.4
2018-Jun-16 19:00N 36°44' W 000°15'510.3
2018-Jun-16 18:30N 36°45' W 000°09'510.4
2018-Jun-16 18:00N 36°46' W 000°03'510.6
2018-Jun-16 17:30N 36°47' E 000°04'610.8
2018-Jun-16 17:00N 36°48' E 000°11'510.9
2018-Jun-16 16:30N 36°49' E 000°17'510.6
2018-Jun-16 16:00N 36°50' E 000°24'510.7
2018-Jun-16 15:30N 36°51' E 000°30'510.7
2018-Jun-16 15:00N 36°52' E 000°37'510.4
2018-Jun-16 14:30N 36°52' E 000°43'510.7
2018-Jun-16 14:00N 36°54' E 000°50'510.8
2018-Jun-16 13:30N 36°55' E 000°56'610.7
2018-Jun-16 12:58N 36°56' E 001°03'510.6
2018-Jun-16 12:30N 36°57' E 001°09'610.5
2018-Jun-16 11:59N 36°58' E 001°16'510.6
2018-Jun-16 11:30N 36°59' E 001°22'510.5
2018-Jun-16 11:00N 36°60' E 001°29'510.4
2018-Jun-16 10:30N 37°01' E 001°35'510.4
2018-Jun-16 10:00N 37°02' E 001°42'510.4
2018-Jun-16 09:30N 37°02' E 001°48'510.5
2018-Jun-16 09:00N 37°03' E 001°54'510.3
2018-Jun-16 08:30N 37°04' E 002°01'510.1
2018-Jun-16 08:00N 37°05' E 002°07'510.1
2018-Jun-16 07:30N 37°06' E 002°13'5 9.8
2018-Jun-16 07:00N 37°07' E 002°19'5 9.4
2018-Jun-16 06:30N 37°08' E 002°25'5 9.3
2018-Jun-16 06:00N 37°09' E 002°31'5 9.2
2018-Jun-16 05:31N 37°10' E 002°36'5 9.2
2018-Jun-16 05:00N 37°11' E 002°42'5 9.6
2018-Jun-16 04:30N 37°12' E 002°48'510.0
2018-Jun-16 04:00N 37°12' E 002°54'510.2
2018-Jun-16 03:30N 37°13' E 003°01'510.4
2018-Jun-16 03:00N 37°14' E 003°07'510.8
2018-Jun-16 02:30N 37°14' E 003°14'510.6
2018-Jun-16 02:00N 37°15' E 003°20'610.9
2018-Jun-16 01:29N 37°15' E 003°27'511.1
2018-Jun-16 01:00N 37°16' E 003°34'611.0
2018-Jun-16 00:30N 37°17' E 003°41'510.7
2018-Jun-15 23:59N 37°17' E 003°48'510.4
2018-Jun-15 23:30N 37°17' E 003°54'510.1
2018-Jun-15 23:00N 37°18' E 004°00'6 9.9
2018-Jun-15 22:25N 37°18' E 004°08'410.0
2018-Jun-15 22:00N 37°19' E 004°13'5 9.9
2018-Jun-15 21:30N 37°19' E 004°19'  

Dump ship's entire track history